Thursday, February 22, 2018, 5:27 AM EST
Back to Local

KART, Watertown International Airport

Location: Dexter, NY, United States Lat: 43.983
Local Time: 5:27 AM EST (10:27 GMT) Lon: -76.033
Time Zone: US/Eastern Elev: 324 ft

Show me the last for .
Show Decoded

2018-02-22 04:56 METAR KART 220956Z AUTO 04008KT 10SM CLR M01/M04 A3065 RMK AO2 SLP383 T10061044
                 =
2018-02-22 03:56 METAR KART 220856Z AUTO 04009KT 10SM CLR M01/M04 A3064 RMK AO2 SLP379 T10061044
                 50003 =
2018-02-22 02:56 METAR KART 220756Z AUTO 03007KT 10SM SCT041 00/M04 A3065 RMK AO2 SLP384
                 T00001039 =
2018-02-22 01:56 METAR KART 220656Z AUTO 04007KT 10SM BKN032 OVC041 00/M03 A3064 RMK AO2 SLP382
                 T00001033 =
2018-02-22 00:56 METAR KART 220556Z AUTO 04009KT 10SM FEW026 SCT032 BKN042 01/M03 A3063 RMK AO2
                 SLP374 T00061028 10022 20006 51013 =
2018-02-21 23:56 METAR KART 220456Z AUTO 01005KT 10SM BKN016 OVC024 02/01 A3060 RMK AO2 SLP366
                 T00170011 401890017 =
2018-02-21 22:56 METAR KART 220356Z AUTO 00000KT 10SM OVC026 02/01 A3059 RMK AO2 SLP360 T00170006
                 =
2018-02-21 21:56 METAR KART 220256Z AUTO 00000KT 10SM OVC025 02/01 A3056 RMK AO2 SLP352 T00170006
                 51018 =
2018-02-21 20:56 METAR KART 220156Z AUTO 21004KT 10SM OVC023 02/01 A3055 RMK AO2 SLP346 T00170006
                 =
2018-02-21 19:56 METAR KART 220056Z AUTO 21005KT 10SM OVC019 02/01 A3053 RMK AO2 SLP341 T00220011
                 =
2018-02-21 18:56 METAR KART 212356Z AUTO 21004KT 10SM OVC020 02/01 A3051 RMK AO2 SLP334 60000
                 T00220011 10072 20022 53043 =
2018-02-21 17:56 METAR KART 212256Z AUTO 23006KT 10SM BKN022 OVC075 02/02 A3046 RMK AO2 SLP317
                 T00220017 =
2018-02-21 16:56 METAR KART 212156Z AUTO 23008KT 10SM OVC020 03/02 A3042 RMK AO2 SLP301 T00280017
                 =
2018-02-21 15:56 METAR KART 212056Z AUTO 24010KT 10SM OVC016 03/02 A3038 RMK AO2 RAE03 SLP289
                 P0000 60000 T00280017 51056 =
2018-02-21 14:56 METAR KART 211956Z AUTO 23008KT 10SM -RA BKN018 OVC047 03/02 A3035 RMK AO2
                 PRESRR SLP277 P0000 T00280022 =
2018-02-21 13:56 METAR KART 211856Z AUTO 24011G18KT 10SM -RA OVC039 06/04 A3028 RMK AO2 RAB45
                 PRESRR SLP254 P0000 T00560044 =
2018-02-21 12:56 METAR KART 211756Z AUTO 21006KT 10SM FEW004 SCT012 OVC033 07/07 A3022 RMK AO2
                 RAE14 SLP231 P0000 60005 T00720072 10189 20072 51036 =
2018-02-21 12:53 METAR KART 211753Z AUTO 21007KT 10SM SCT012 OVC033 08/08 A3021 RMK AO2 RAE14
                 P0000 =
2018-02-21 12:30 METAR KART 211730Z AUTO 25006KT 6SM BR SCT003 BKN012 OVC033 08/08 A3020 RMK AO2
                 RAE14 P0000 T00830083 =
2018-02-21 12:09 METAR KART 211709Z AUTO 24007KT 3SM -RA BR BKN003 BKN008 OVC022 08/08 A3018 RMK
                 AO2 P0000 T00830083 =
2018-02-21 11:56 METAR KART 211656Z AUTO 24007KT 1SM -RA BR BKN003 OVC022 08/08 A3017 RMK AO2
                 RAB1559 SLP217 P0005 T00830083 =
2018-02-21 11:29 METAR KART 211629Z AUTO 28012KT 1SM -RA BR OVC003 09/09 A3015 RMK AO2 RAB1559
                 P0003 T00890089 =
2018-02-21 11:03 METAR KART 211603Z AUTO 27012KT 1 3/4SM -RA BR BKN007 BKN022 OVC045 11/09 A3012
                 RMK AO2 RAB1559 CIG 005V009 P0001 T01060094 =
2018-02-21 10:56 METAR KART 211556Z AUTO 27011KT 10SM BKN007 BKN022 OVC045 11/09 A3011 RMK AO2
                 CIG 006V010 SLP194 T01110094 =
2018-02-21 10:47 METAR KART 211547Z AUTO 26009KT 10SM FEW009 SCT022 OVC046 12/09 A3010 RMK AO2
                 PRESRR T01170094 =
2018-02-21 09:56 METAR KART 211456Z AUTO 25012G19KT 10SM OVC049 13/09 A3007 RMK AO2 PK WND
                 27027/1429 WSHFT 1421 SLP182 T01280094 53010 =
2018-02-21 09:41 METAR KART 211441Z AUTO 27014G25KT 10SM OVC049 14/10 A3007 RMK AO2 PK WND
                 27027/1429 WSHFT 1421 T01390100 =
2018-02-21 08:56 METAR KART 211356Z AUTO 20015G24KT 10SM SCT048 SCT065 BKN100 19/12 A3001 RMK AO2
                 SLP161 T01890117 =
2018-02-21 07:56 METAR KART 211256Z AUTO 29004KT 10SM FEW060 11/09 A3003 RMK AO2 SLP168 T01060089
                 =
2018-02-21 06:56 METAR KART 211156Z AUTO 25004KT 10SM BKN055 10/08 A3004 RMK AO2 WSHFT 1052
                 SLP172 70016 T01000083 10183 20094 53005 =
2018-02-21 06:12 METAR KART 211112Z AUTO 26012KT 10SM CLR 12/09 A3004 RMK AO2 WSHFT 1052
                 T01220094 =
2018-02-21 05:56 METAR KART 211056Z AUTO 26012G18KT 10SM CLR 17/12 A3004 RMK AO2 SLP170 T01670117
                 =

Support USWX by starting your Amazon purchase here.